| time (UTC) | temp F | wind direction | speed MPH | gust MPH | rain 1hr in | rain 24hr in | rain mn in | humidity % | barometer mb |
| 20260505173026 | 77 | 202 | 2.0 | 10.0 | 0.00 | 0.00 | 0.00 | 48 | 1017.7 |
| 20260505171516 | 77 | 74 | 3.0 | 9.0 | 0.00 | 0.00 | 0.00 | 49 | 1017.7 |
| 20260505170022 | 76 | 192 | 2.0 | 10.0 | 0.00 | 0.00 | 0.00 | 52 | 1018.0 |
| 20260505164526 | 76 | 218 | 4.0 | 11.0 | 0.00 | 0.00 | 0.00 | 50 | 1018.2 |
| 20260505163028 | 75 | 230 | 2.0 | 11.0 | 0.00 | 0.00 | 0.00 | 53 | 1018.4 |
| 20260505161528 | 75 | 198 | 5.0 | 10.0 | 0.00 | 0.00 | 0.00 | 56 | 1018.4 |
| 20260505153012 | 75 | 212 | 4.0 | 8.0 | 0.00 | 0.00 | 0.00 | 58 | 1018.8 |
| 20260505151511 | 73 | 159 | 4.0 | 10.0 | 0.00 | 0.00 | 0.00 | 58 | 1018.8 |
| 20260505124518 | 64 | 197 | 2.0 | 3.0 | 0.00 | 0.00 | 0.00 | 81 | 1018.8 |
| 20260505123029 | 61 | 189 | 0.0 | 2.0 | 0.00 | 0.00 | 0.00 | 82 | 1018.6 |
| 20260505121526 | 58 | 189 | 0.0 | 1.0 | 0.00 | 0.00 | 0.00 | 77 | 1018.4 |
| 20260505120027 | 56 | 189 | 0.0 | 0.0 | 0.00 | 0.00 | 0.00 | 78 | 1018.4 |
| 20260505114514 | 55 | 189 | 0.0 | 0.0 | 0.00 | 0.00 | 0.00 | 78 | 1018.4 |
| 20260505113022 | 54 | 189 | 0.0 | 0.0 | 0.00 | 0.00 | 0.00 | 79 | 1018.2 |
| 20260505111521 | 54 | 189 | 0.0 | 0.0 | 0.00 | 0.00 | 0.00 | 79 | 1018.2 |
| 20260505101531 | 53 | 189 | 0.0 | 0.0 | 0.00 | 0.00 | 0.00 | 80 | 1017.3 |
| 20260505100051 | 53 | 189 | 0.0 | 0.0 | 0.00 | 0.00 | 0.00 | 80 | 1017.2 |
| 20260505094530 | 54 | 189 | 0.0 | 0.0 | 0.00 | 0.00 | 0.00 | 80 | 1017.2 |
| 20260505093027 | 54 | 189 | 0.0 | 1.0 | 0.00 | 0.00 | 0.00 | 80 | 1017.2 |
| 20260505091519 | 54 | 189 | 0.0 | 1.0 | 0.00 | 0.00 | 0.00 | 81 | 1017.0 |
| 20260505090005 | 54 | 189 | 0.0 | 1.0 | 0.00 | 0.00 | 0.00 | 81 | 1017.0 |
| 20260505084506 | 54 | 189 | 0.0 | 0.0 | 0.00 | 0.00 | 0.00 | 81 | 1016.9 |
| 20260505083006 | 54 | 189 | 0.0 | 0.0 | 0.00 | 0.00 | 0.00 | 81 | 1016.9 |
| 20260505081514 | 54 | 189 | 0.0 | 0.0 | 0.00 | 0.00 | 0.00 | 81 | 1016.7 |
| 20260505080020 | 55 | 189 | 0.0 | 2.0 | 0.00 | 0.00 | 0.00 | 82 | 1016.6 |
| 20260505074503 | 55 | 189 | 0.0 | 1.0 | 0.00 | 0.00 | 0.00 | 82 | 1016.6 |
| 20260505073027 | 55 | 189 | 0.0 | 1.0 | 0.00 | 0.00 | 0.00 | 82 | 1016.6 |
| 20260505071510 | 55 | 189 | 0.0 | 0.0 | 0.00 | 0.00 | 0.00 | 83 | 1016.4 |
| 20260505070015 | 56 | 189 | 0.0 | 1.0 | 0.00 | 0.00 | 0.00 | 83 | 1016.4 |
| 20260505064521 | 56 | 189 | 0.0 | 1.0 | 0.00 | 0.00 | 0.00 | 83 | 1016.8 |
| 20260505063024 | 56 | 189 | 0.0 | 0.0 | 0.00 | 0.00 | 0.00 | 83 | 1016.8 |
| 20260505061519 | 57 | 189 | 0.0 | 2.0 | 0.00 | 0.00 | 0.00 | 83 | 1017.0 |
| 20260505060015 | 57 | 189 | 0.0 | 1.0 | 0.00 | 0.00 | 0.00 | 83 | 1017.3 |
| 20260505054515 | 57 | 189 | 0.0 | 1.0 | 0.00 | 0.00 | 0.00 | 83 | 1017.4 |
| 20260505053034 | 57 | 189 | 0.0 | 2.0 | 0.00 | 0.00 | 0.00 | 82 | 1017.5 |
| 20260505051537 | 58 | 189 | 0.0 | 0.0 | 0.00 | 0.00 | 0.00 | 81 | 1017.8 |
| 20260505041524 | 60 | 189 | 0.0 | 1.0 | 0.00 | 0.00 | 0.00 | 76 | 1017.7 |
| 20260505040024 | 60 | 189 | 0.0 | 2.0 | 0.00 | 0.00 | 0.00 | 75 | 1017.7 |
| 20260505034512 | 61 | 185 | 0.0 | 2.0 | 0.00 | 0.00 | 0.00 | 74 | 1018.0 |
| 20260505033019 | 61 | 181 | 0.0 | 2.0 | 0.00 | 0.00 | 0.00 | 72 | 1017.8 |
| 20260505031526 | 61 | 181 | 0.0 | 2.0 | 0.00 | 0.00 | 0.00 | 71 | 1018.0 |
| 20260505030025 | 62 | 181 | 0.0 | 2.0 | 0.00 | 0.00 | 0.00 | 69 | 1017.8 |
| 20260505024526 | 62 | 181 | 1.0 | 3.0 | 0.00 | 0.00 | 0.00 | 68 | 1017.7 |
| 20260505023019 | 62 | 180 | 0.0 | 4.0 | 0.00 | 0.00 | 0.00 | 67 | 1017.8 |
| 20260505021518 | 63 | 206 | 0.0 | 2.0 | 0.00 | 0.00 | 0.00 | 65 | 1017.6 |
| 20260505020028 | 63 | 207 | 0.0 | 2.0 | 0.00 | 0.00 | 0.00 | 63 | 1017.7 |
| 20260505014526 | 64 | 207 | 0.0 | 2.0 | 0.00 | 0.00 | 0.00 | 62 | 1017.7 |
| 20260505013030 | 65 | 180 | 0.0 | 4.0 | 0.00 | 0.00 | 0.00 | 60 | 1017.4 |
| 20260505011525 | 65 | 191 | 1.0 | 4.0 | 0.00 | 0.00 | 0.00 | 59 | 1017.6 |
| 20260505010030 | 66 | 189 | 1.0 | 4.0 | 0.00 | 0.00 | 0.00 | 58 | 1017.2 |
| 20260505004524 | 67 | 197 | 1.0 | 4.0 | 0.00 | 0.00 | 0.00 | 56 | 1017.4 |
| 20260505003025 | 67 | 178 | 1.0 | 4.0 | 0.00 | 0.00 | 0.00 | 54 | 1017.2 |
| 20260505001530 | 68 | 219 | 3.0 | 6.0 | 0.00 | 0.00 | 0.00 | 53 | 1017.2 |
| 20260505000035 | 69 | 190 | 3.0 | 6.0 | 0.00 | 0.00 | 0.00 | 52 | 1017.3 |
| 20260504234522 | 69 | 178 | 2.0 | 7.0 | 0.00 | 0.00 | 0.00 | 51 | 1016.9 |
| 20260504233025 | 70 | 204 | 2.0 | 9.0 | 0.00 | 0.00 | 0.00 | 50 | 1017.0 |
| 20260504231510 | 71 | 198 | 5.0 | 11.0 | 0.00 | 0.00 | 0.00 | 49 | 1016.7 |
| 20260504230025 | 71 | 196 | 4.0 | 13.0 | 0.00 | 0.00 | 0.00 | 51 | 1016.8 |
| 20260504224503 | 72 | 234 | 6.0 | 12.0 | 0.00 | 0.00 | 0.00 | 49 | 1016.6 |
| 20260504223006 | 72 | 225 | 5.0 | 14.0 | 0.00 | 0.00 | 0.00 | 48 | 1017.0 |
| 20260504221520 | 72 | 194 | 4.0 | 16.0 | 0.00 | 0.00 | 0.00 | 48 | 1016.7 |
| 20260504220012 | 73 | 215 | 6.0 | 15.0 | 0.00 | 0.00 | 0.00 | 47 | 1016.8 |
| 20260504214522 | 73 | 198 | 7.0 | 14.0 | 0.00 | 0.00 | 0.00 | 47 | 1016.5 |
| 20260504213004 | 73 | 209 | 3.0 | 14.0 | 0.00 | 0.00 | 0.00 | 46 | 1016.7 |
| 20260504211508 | 74 | 184 | 6.0 | 14.0 | 0.00 | 0.00 | 0.00 | 45 | 1016.8 |
| 20260504210010 | 75 | 207 | 7.0 | 15.0 | 0.00 | 0.00 | 0.00 | 44 | 1016.5 |
| 20260504204517 | 75 | 163 | 5.0 | 15.0 | 0.00 | 0.00 | 0.00 | 45 | 1016.4 |
| 20260504203020 | 75 | 231 | 5.0 | 18.0 | 0.00 | 0.00 | 0.00 | 43 | 1016.4 |
| 20260504201506 | 76 | 198 | 8.0 | 15.0 | 0.00 | 0.00 | 0.00 | 42 | 1016.4 |
| 20260504200010 | 77 | 206 | 3.0 | 9.0 | 0.00 | 0.00 | 0.00 | 39 | 1016.4 |
| 20260504194514 | 77 | 195 | 4.0 | 10.0 | 0.00 | 0.00 | 0.00 | 34 | 1016.7 |
| 20260504193015 | 77 | 123 | 2.0 | 9.0 | 0.00 | 0.00 | 0.00 | 36 | 1016.8 |
| 20260504191531 | 76 | 192 | 2.0 | 8.0 | 0.00 | 0.00 | 0.00 | 35 | 1017.1 |
| 20260504190007 | 76 | 194 | 4.0 | 10.0 | 0.00 | 0.00 | 0.00 | 37 | 1017.2 |
| 20260504184508 | 76 | 178 | 3.0 | 8.0 | 0.00 | 0.00 | 0.00 | 37 | 1017.9 |
| 20260504183014 | 75 | 325 | 4.0 | 9.0 | 0.00 | 0.00 | 0.00 | 38 | 1017.6 |
| 20260504181518 | 75 | 206 | 5.0 | 8.0 | 0.00 | 0.00 | 0.00 | 38 | 1017.7 |
| 20260504180024 | 75 | 211 | 6.0 | 9.0 | 0.00 | 0.00 | 0.00 | 38 | 1017.8 |
| 20260504174527 | 74 | 177 | 1.0 | 8.0 | 0.00 | 0.00 | 0.00 | 38 | 1017.7 |